OEMO2: Okemah Hwy 56

                                SHEF ID:       OEMO2     Okemah Hwy 56
STATION TYPE:

PRECIP STAGE RIV-FLOW VOLTAGE BAT-LOAD
in ft cfs volt volt
Ccp-Rev Ccp-Rev Ccp-Rev Ccp-Rev Ccp-Rev
(America/Chicago)
05/03 00:00 0.00 8.91 240 12.90 12.60
05/03 01:00 0.00 8.92 242 12.88 12.58
05/03 02:00 0.00 8.92 242 12.85 12.55
05/03 03:00 0.00 8.92 242 12.83 12.53
05/03 04:00 0.00 8.91 240 12.82 12.51
05/03 05:00 0.00 8.91 240 12.80 12.50
05/03 06:00 0.00 8.91 240 12.79 12.48
05/03 07:00 0.00 8.91 240 12.80 12.47
05/03 08:00 0.00 8.91 240 12.83 12.50
05/03 09:00 0.00 8.91 240 12.90 12.54
05/03 10:00 0.00 8.90 238 13.23 12.77
05/03 11:00 0.00 8.89 235 13.97 13.10
05/03 12:00 0.00 8.85 226 13.88 13.20
05/03 13:00 0.00 8.85 226 13.39 13.03
05/03 14:00 0.00 8.85 226 13.36 12.97
05/03 15:00 0.00 8.85 226 13.26 12.94
05/03 16:00 0.00 8.84 223 13.18 12.84
05/03 17:00 0.00 8.84 223 13.11 12.77
05/03 18:00 0.00 8.84 223 13.11 12.76
05/03 19:00 0.00 8.84 223 13.16 12.77
05/03 20:00 0.00 8.83 221 13.10 12.81
05/03 21:00 0.00 8.87 230 12.99 12.67
05/03 22:00 0.00 8.87 230 12.94 12.63
05/03 23:00 ---- ---- ---- ---- ----
Data processed at Mon 04May2026 03:50 GMT

NOTICE: If you are parsing this page

Please convert to using our Data API. Starting early 2026 we will be migrating to: https://water.usace.army.mil with modern pages rendered in JavaScript. When this migration completes you will no longer be able to scrape this page! CWMSDataAPI (CDA)

Timeseries IDs (TSIDs)

TSIDs used from left to right in the data table
OKEM.Precip-Inc.Total.1Hour.1Hour.Ccp-Rev
OKEM.Stage.Inst.1Hour.0.Ccp-Rev
OKEM.Flow.Inst.1Hour.0.Ccp-Rev
OKEM.Volt-Battery.Inst.1Hour.0.Ccp-Rev
OKEM.Volt-Battery Load.Inst.1Hour.0.Ccp-Rev

                            

All information presented herein is the property of the government of the United States of America and may be revised or deleted at any time without prior notice. Dissemination of this information without the expressed written consent of the Public Affairs Office, Tulsa District U.S. Army Corps of Engineers is strictly prohibited. These data are gathered electronically and, as presented, have NOT undergone any form of quality control. These data are NOT guaranteed to be valid or correct.